createdAt,value
2018-01-11T00:00:41.473Z,8.63
2018-01-11T00:01:41.469Z,8.65
2018-01-11T00:02:41.466Z,8.68
2018-01-11T00:03:41.464Z,8.68
2018-01-11T00:04:41.451Z,8.65
2018-01-11T00:05:41.442Z,8.55
2018-01-11T00:06:41.442Z,8.55
2018-01-11T00:07:41.429Z,8.55
2018-01-11T00:08:41.426Z,8.59
2018-01-11T00:09:41.419Z,8.71
2018-01-11T00:10:41.411Z,8.67
2018-01-11T00:11:41.404Z,8.72
2018-01-11T00:12:41.392Z,8.62
2018-01-11T00:13:41.394Z,8.71
2018-01-11T00:14:41.376Z,8.59
2018-01-11T00:15:41.379Z,8.65
2018-01-11T00:16:41.369Z,8.60
2018-01-11T00:17:41.361Z,8.67
2018-01-11T00:18:41.354Z,8.60
2018-01-11T00:19:41.346Z,8.62
2018-01-11T00:20:41.337Z,8.63
2018-01-11T00:21:41.337Z,8.59
2018-01-11T00:22:41.323Z,8.71
2018-01-11T00:23:41.316Z,8.67
2018-01-11T00:24:41.298Z,8.62
2018-01-11T00:25:41.297Z,8.65
2018-01-11T00:26:41.295Z,8.63
2018-01-11T00:27:41.278Z,8.68
2018-01-11T00:28:41.278Z,8.70
2018-01-11T00:29:41.272Z,8.71
2018-01-11T00:30:41.269Z,8.70
2018-01-11T00:31:41.261Z,8.62
2018-01-11T00:32:41.256Z,8.70
2018-01-11T00:33:41.247Z,8.60
2018-01-11T00:34:41.238Z,8.62
2018-01-11T00:35:41.232Z,8.68
2018-01-11T00:36:41.224Z,8.62
2018-01-11T00:37:41.217Z,8.63
2018-01-11T00:38:41.730Z,8.65
2018-01-11T00:39:41.204Z,8.53
2018-01-11T00:40:41.194Z,8.56
2018-01-11T00:41:41.196Z,8.68
2018-01-11T00:42:41.178Z,8.65
2018-01-11T00:43:41.168Z,8.53
2018-01-11T00:44:41.158Z,8.65
2018-01-11T00:45:41.160Z,8.59
2018-01-11T00:46:41.152Z,8.59
2018-01-11T00:47:41.139Z,8.63
2018-01-11T00:48:41.139Z,8.57
2018-01-11T00:49:41.134Z,8.52
2018-01-11T00:50:41.124Z,8.60
2018-01-11T00:51:41.117Z,8.57
2018-01-11T00:52:41.124Z,8.62
2018-01-11T00:53:41.743Z,8.67
2018-01-11T00:54:41.092Z,8.55
2018-01-11T00:55:41.087Z,8.67
2018-01-11T00:56:41.089Z,8.67
2018-01-11T00:57:41.076Z,8.63
2018-01-11T00:58:41.066Z,8.71
2018-01-11T00:59:41.057Z,8.67
2018-01-11T01:00:41.051Z,8.68
2018-01-11T01:01:41.044Z,8.71
2018-01-11T01:02:41.040Z,8.63
2018-01-11T01:03:41.027Z,8.62
2018-01-11T01:04:41.023Z,8.62
2018-01-11T01:05:41.018Z,8.65
2018-01-11T01:06:41.007Z,8.62
2018-01-11T01:07:40.999Z,8.59
2018-01-11T01:08:40.996Z,8.62
2018-01-11T01:09:40.988Z,8.62
2018-01-11T01:10:40.978Z,8.71
2018-01-11T01:11:40.973Z,8.63
2018-01-11T01:12:40.965Z,8.67
2018-01-11T01:13:40.949Z,8.70
2018-01-11T01:14:40.949Z,8.62
2018-01-11T01:15:40.938Z,8.67
2018-01-11T01:16:40.935Z,8.65
2018-01-11T01:17:40.926Z,8.74
2018-01-11T01:18:40.925Z,8.72
2018-01-11T01:19:40.916Z,8.70
2018-01-11T01:20:40.902Z,8.71
2018-01-11T01:21:40.911Z,8.65
2018-01-11T01:22:40.893Z,8.71
2018-01-11T01:23:40.884Z,8.62
2018-01-11T01:24:40.874Z,8.62
2018-01-11T01:25:40.878Z,8.68
2018-01-11T01:26:40.868Z,8.67
2018-01-11T01:27:40.857Z,8.63
2018-01-11T01:28:40.846Z,8.68
2018-01-11T01:29:40.846Z,8.70
2018-01-11T01:30:40.847Z,8.70
2018-01-11T01:31:40.845Z,8.71
2018-01-11T01:32:40.840Z,8.68
2018-01-11T01:33:40.815Z,8.67
2018-01-11T01:34:40.816Z,8.67
2018-01-11T01:35:40.798Z,8.67
2018-01-11T01:36:40.796Z,8.65
2018-01-11T01:37:40.785Z,8.68
2018-01-11T01:38:40.791Z,8.67
2018-01-11T01:39:40.806Z,8.68
2018-01-11T01:40:40.761Z,8.70
2018-01-11T01:41:40.754Z,8.68
2018-01-11T01:42:40.751Z,8.62
2018-01-11T01:43:40.749Z,8.62
2018-01-11T01:44:40.752Z,8.56
2018-01-11T01:45:40.734Z,8.68
2018-01-11T01:46:40.723Z,8.55
2018-01-11T01:47:40.716Z,8.68
2018-01-11T01:48:40.713Z,8.62
2018-01-11T01:49:40.702Z,8.60
2018-01-11T01:50:40.684Z,8.65
2018-01-11T01:51:41.256Z,8.62
2018-01-11T01:52:40.674Z,8.62
2018-01-11T01:53:40.672Z,8.60
2018-01-11T01:54:40.658Z,8.57
2018-01-11T01:55:40.655Z,8.68
2018-01-11T01:56:40.646Z,8.60
2018-01-11T01:57:40.644Z,8.55
2018-01-11T01:58:40.639Z,8.62
2018-01-11T01:59:40.632Z,8.67
2018-01-11T02:00:40.624Z,8.62
2018-01-11T02:01:40.612Z,8.62
2018-01-11T02:02:40.612Z,8.62
2018-01-11T02:03:40.623Z,8.62
2018-01-11T02:04:40.595Z,8.60
2018-01-11T02:05:40.592Z,8.65
2018-01-11T02:06:40.576Z,8.68
2018-01-11T02:07:40.562Z,8.67
2018-01-11T02:08:40.560Z,8.68
2018-01-11T02:09:40.545Z,8.60
2018-01-11T02:10:40.548Z,8.67
2018-01-11T02:11:40.541Z,8.63
2018-01-11T02:12:40.533Z,8.70
2018-01-11T02:13:40.528Z,8.57
2018-01-11T02:14:40.514Z,8.55
2018-01-11T02:15:40.506Z,8.56
2018-01-11T02:16:40.509Z,8.55
2018-01-11T02:17:40.498Z,8.62
2018-01-11T02:18:40.491Z,8.72
2018-01-11T02:19:40.485Z,8.55
2018-01-11T02:20:40.469Z,8.68
2018-01-11T02:21:40.473Z,8.65
2018-01-11T02:22:40.457Z,8.56
2018-01-11T02:23:40.450Z,8.60
2018-01-11T02:24:40.442Z,8.63
2018-01-11T02:25:41.269Z,8.67
2018-01-11T02:26:40.436Z,8.60
2018-01-11T02:27:40.424Z,8.68
2018-01-11T02:28:40.417Z,8.70
2018-01-11T02:29:40.411Z,8.71
2018-01-11T02:30:40.401Z,8.67
2018-01-11T02:31:40.391Z,8.70
2018-01-11T02:32:40.384Z,8.72
2018-01-11T02:33:40.379Z,8.70
2018-01-11T02:34:40.374Z,8.68
2018-01-11T02:35:40.364Z,8.70
2018-01-11T02:36:40.353Z,8.67
2018-01-11T02:37:40.346Z,8.68
2018-01-11T02:38:40.346Z,8.71
2018-01-11T02:39:40.340Z,8.70
2018-01-11T02:40:40.328Z,8.67
2018-01-11T02:41:40.329Z,8.63
2018-01-11T02:42:40.316Z,8.60
2018-01-11T02:43:40.305Z,8.56
2018-01-11T02:44:40.298Z,8.67
2018-01-11T02:45:40.292Z,8.71
2018-01-11T02:46:40.284Z,8.60
2018-01-11T02:47:40.282Z,8.55
2018-01-11T02:48:40.272Z,8.60
2018-01-11T02:49:40.265Z,8.63
2018-01-11T02:50:40.253Z,8.65
2018-01-11T02:51:40.246Z,8.56
2018-01-11T02:52:40.241Z,8.67
2018-01-11T02:53:40.238Z,8.67
2018-01-11T02:54:40.785Z,8.55
2018-01-11T02:55:40.222Z,8.57
2018-01-11T02:56:40.215Z,8.59
2018-01-11T02:57:40.218Z,8.52
2018-01-11T02:58:40.199Z,8.57
2018-01-11T02:59:40.195Z,8.63
2018-01-11T03:00:40.189Z,8.62
2018-01-11T03:01:40.191Z,8.56
2018-01-11T03:02:40.168Z,8.59
2018-01-11T03:03:40.162Z,8.53
2018-01-11T03:04:40.158Z,8.56
2018-01-11T03:05:40.147Z,8.57
2018-01-11T03:06:40.136Z,8.56
2018-01-11T03:07:40.132Z,8.53
2018-01-11T03:08:40.124Z,8.52
2018-01-11T03:09:40.120Z,8.56
2018-01-11T03:10:40.111Z,8.52
2018-01-11T03:11:40.101Z,8.49
2018-01-11T03:12:40.538Z,8.52
2018-01-11T03:13:40.137Z,8.56
2018-01-11T03:14:40.088Z,8.55
2018-01-11T03:15:40.071Z,8.56
2018-01-11T03:16:40.078Z,8.57
2018-01-11T03:17:40.059Z,8.52
2018-01-11T03:18:40.052Z,8.56
2018-01-11T03:19:40.042Z,8.52
2018-01-11T03:20:40.040Z,8.50
2018-01-11T03:21:40.028Z,8.46
2018-01-11T03:22:40.021Z,8.44
2018-01-11T03:23:40.013Z,8.50
2018-01-11T03:24:40.006Z,8.44
2018-01-11T03:25:39.999Z,8.49
2018-01-11T03:26:39.993Z,8.42
2018-01-11T03:27:39.989Z,8.44
2018-01-11T03:28:39.982Z,8.47
2018-01-11T03:29:39.974Z,8.41
2018-01-11T03:30:39.967Z,8.44
2018-01-11T03:31:39.956Z,8.47
2018-01-11T03:32:39.947Z,8.50
2018-01-11T03:33:39.943Z,8.52
2018-01-11T03:34:39.932Z,8.53
2018-01-11T03:35:39.926Z,8.55
2018-01-11T03:36:39.921Z,8.56
2018-01-11T03:37:39.910Z,8.59
2018-01-11T03:38:39.904Z,8.59
2018-01-11T03:39:39.890Z,8.53
2018-01-11T03:40:39.880Z,8.52
2018-01-11T03:41:39.888Z,8.55
2018-01-11T03:42:39.874Z,8.56
2018-01-11T03:43:39.870Z,8.44
2018-01-11T03:44:39.861Z,8.46
2018-01-11T03:45:39.848Z,8.42
2018-01-11T03:46:39.851Z,8.52
2018-01-11T03:47:39.837Z,8.47
2018-01-11T03:48:39.839Z,8.53
2018-01-11T03:49:39.828Z,8.46
2018-01-11T03:50:39.818Z,8.44
2018-01-11T03:51:39.806Z,8.46
2018-01-11T03:52:39.799Z,8.35
2018-01-11T03:53:39.792Z,8.38
2018-01-11T03:54:39.783Z,8.32
2018-01-11T03:55:39.771Z,8.37
2018-01-11T03:56:39.770Z,8.37
2018-01-11T03:57:39.764Z,8.39
2018-01-11T03:58:39.772Z,8.42
2018-01-11T03:59:39.790Z,8.34
2018-01-11T04:00:39.735Z,8.39
2018-01-11T04:01:39.737Z,8.28
2018-01-11T04:02:39.723Z,8.29
2018-01-11T04:03:39.722Z,8.26
2018-01-11T04:04:39.713Z,8.28
2018-01-11T04:05:39.707Z,8.20
2018-01-11T04:06:39.696Z,8.24
2018-01-11T04:07:39.684Z,8.20
2018-01-11T04:08:39.682Z,8.17
2018-01-11T04:09:39.672Z,8.13
2018-01-11T04:10:39.668Z,8.17
2018-01-11T04:11:39.663Z,8.05
2018-01-11T04:12:39.652Z,8.09
2018-01-11T04:13:39.640Z,8.17
2018-01-11T04:14:39.637Z,8.12
2018-01-11T04:15:39.634Z,8.10
2018-01-11T04:16:39.627Z,8.06
2018-01-11T04:17:39.616Z,8.09
2018-01-11T04:18:39.654Z,8.10
2018-01-11T04:19:39.597Z,8.12
2018-01-11T04:20:39.597Z,8.10
2018-01-11T04:21:39.584Z,8.10
2018-01-11T04:22:39.570Z,8.06
2018-01-11T04:23:39.568Z,8.04
2018-01-11T04:24:39.598Z,8.06
2018-01-11T04:25:39.553Z,8.05
2018-01-11T04:26:39.549Z,8.01
2018-01-11T04:27:39.531Z,8.05
2018-01-11T04:28:39.528Z,8.05
2018-01-11T04:29:39.523Z,8.04
2018-01-11T04:30:39.517Z,8.04
2018-01-11T04:31:39.512Z,8.02
2018-01-11T04:32:39.501Z,8.05
2018-01-11T04:33:39.492Z,8.05
2018-01-11T04:34:39.478Z,8.04
2018-01-11T04:35:39.469Z,8.02
2018-01-11T04:36:39.460Z,8.09
2018-01-11T04:37:39.456Z,8.04
2018-01-11T04:38:39.451Z,7.99
2018-01-11T04:39:39.443Z,8.02
2018-01-11T04:40:39.434Z,7.95
2018-01-11T04:41:39.435Z,8.12
2018-01-11T04:42:39.419Z,8.02
2018-01-11T04:43:39.408Z,8.10
2018-01-11T04:44:39.400Z,8.06
2018-01-11T04:45:39.394Z,8.05
2018-01-11T04:46:40.320Z,8.05
2018-01-11T04:47:39.380Z,8.04
2018-01-11T04:48:39.371Z,8.09
2018-01-11T04:49:39.362Z,7.99
2018-01-11T04:50:39.354Z,8.02
2018-01-11T04:51:39.353Z,8.04
2018-01-11T04:52:39.347Z,8.06
2018-01-11T04:53:39.331Z,7.95
2018-01-11T04:54:39.325Z,7.99
2018-01-11T04:55:39.318Z,8.01
2018-01-11T04:56:39.310Z,8.01
2018-01-11T04:57:39.304Z,7.92
2018-01-11T04:58:39.299Z,7.99
2018-01-11T04:59:39.286Z,7.95
2018-01-11T05:00:39.279Z,7.95
2018-01-11T05:01:39.293Z,7.99
2018-01-11T05:02:39.261Z,7.96
2018-01-11T05:03:39.257Z,8.02
2018-01-11T05:04:39.245Z,7.99
2018-01-11T05:05:39.239Z,7.94
2018-01-11T05:06:39.227Z,8.01
2018-01-11T05:07:39.222Z,7.92
2018-01-11T05:08:39.211Z,8.02
2018-01-11T05:09:39.206Z,8.01
2018-01-11T05:10:39.200Z,8.02
2018-01-11T05:11:39.192Z,8.02
2018-01-11T05:12:39.186Z,8.02
2018-01-11T05:13:39.171Z,8.04
2018-01-11T05:14:39.172Z,8.02
2018-01-11T05:15:39.157Z,8.01
2018-01-11T05:16:39.157Z,8.10
2018-01-11T05:17:39.839Z,8.04
2018-01-11T05:18:39.130Z,8.12
2018-01-11T05:19:39.121Z,8.10
2018-01-11T05:20:39.125Z,8.06
2018-01-11T05:21:39.135Z,8.04
2018-01-11T05:22:39.106Z,8.12
2018-01-11T05:23:39.088Z,8.16
2018-01-11T05:24:39.085Z,8.13
2018-01-11T05:25:39.092Z,8.09
2018-01-11T05:26:39.080Z,8.17
2018-01-11T05:27:39.066Z,8.12
2018-01-11T05:28:39.058Z,8.12
2018-01-11T05:29:39.053Z,8.16
2018-01-11T05:30:39.047Z,8.04
2018-01-11T05:31:39.044Z,8.10
2018-01-11T05:32:39.031Z,8.17
2018-01-11T05:33:39.023Z,8.16
2018-01-11T05:34:39.018Z,8.17
2018-01-11T05:35:39.004Z,8.16
2018-01-11T05:36:38.996Z,8.17
2018-01-11T05:37:38.985Z,8.24
2018-01-11T05:38:38.994Z,8.24
2018-01-11T05:39:38.988Z,8.24
2018-01-11T05:40:38.968Z,8.17
2018-01-11T05:41:38.955Z,8.21
2018-01-11T05:42:38.950Z,8.20
2018-01-11T05:43:38.955Z,8.28
2018-01-11T05:44:38.934Z,8.21
2018-01-11T05:45:38.937Z,8.29
2018-01-11T05:46:38.937Z,8.26
2018-01-11T05:47:38.913Z,8.32
2018-01-11T05:48:38.897Z,8.26
2018-01-11T05:49:38.888Z,8.29
2018-01-11T05:50:38.894Z,8.28
2018-01-11T05:51:38.901Z,8.23
2018-01-11T05:52:38.869Z,8.29
2018-01-11T05:53:40.709Z,8.35
2018-01-11T05:54:39.570Z,8.32
2018-01-11T05:55:38.854Z,8.28
2018-01-11T05:56:38.849Z,8.28
2018-01-11T05:57:38.834Z,8.32
2018-01-11T05:58:38.846Z,8.28
2018-01-11T05:59:38.828Z,8.28
2018-01-11T06:00:38.812Z,8.37
2018-01-11T06:01:38.841Z,8.39
2018-01-11T06:02:38.805Z,8.29
2018-01-11T06:03:38.783Z,8.29
2018-01-11T06:04:38.779Z,8.41
2018-01-11T06:05:38.784Z,8.24
2018-01-11T06:06:38.783Z,8.24
2018-01-11T06:07:38.770Z,8.31
2018-01-11T06:08:38.764Z,8.24
2018-01-11T06:09:38.752Z,8.31
2018-01-11T06:10:38.738Z,8.31
2018-01-11T06:11:38.733Z,8.32
2018-01-11T06:12:38.738Z,8.31
2018-01-11T06:13:38.717Z,8.38
2018-01-11T06:14:38.703Z,8.32
2018-01-11T06:15:38.692Z,8.34
2018-01-11T06:16:38.689Z,8.44
2018-01-11T06:17:38.699Z,8.35
2018-01-11T06:18:38.667Z,8.35
2018-01-11T06:19:38.698Z,8.38
2018-01-11T06:20:38.666Z,8.42
2018-01-11T06:21:38.647Z,8.35
2018-01-11T06:22:38.663Z,8.35
2018-01-11T06:23:38.641Z,8.47
2018-01-11T06:24:38.635Z,8.39
2018-01-11T06:25:38.649Z,8.35
2018-01-11T06:26:38.641Z,8.44
2018-01-11T06:27:38.608Z,8.38
2018-01-11T06:28:38.598Z,8.38
2018-01-11T06:29:38.597Z,8.35
2018-01-11T06:30:38.581Z,8.34
2018-01-11T06:31:38.582Z,8.37
2018-01-11T06:32:38.578Z,8.49
2018-01-11T06:33:38.559Z,8.37
2018-01-11T06:34:39.364Z,8.34
2018-01-11T06:35:38.544Z,8.52
2018-01-11T06:36:38.547Z,8.35
2018-01-11T06:37:38.545Z,8.32
2018-01-11T06:38:38.525Z,8.44
2018-01-11T06:39:38.521Z,8.49
2018-01-11T06:40:38.523Z,8.47
2018-01-11T06:41:38.508Z,8.39
2018-01-11T06:42:38.490Z,8.49
2018-01-11T06:43:39.366Z,8.52
2018-01-11T06:44:38.487Z,8.44
2018-01-11T06:45:38.489Z,8.38
2018-01-11T06:46:38.466Z,8.49
2018-01-11T06:47:38.456Z,8.34
2018-01-11T06:48:38.450Z,8.42
2018-01-11T06:49:38.448Z,8.39
2018-01-11T06:50:38.443Z,8.34
2018-01-11T06:51:38.468Z,8.42
2018-01-11T06:52:41.367Z,8.35
2018-01-11T06:53:39.392Z,8.32
2018-01-11T06:54:38.408Z,8.38
2018-01-11T06:55:38.395Z,8.35
2018-01-11T06:56:38.381Z,8.37
2018-01-11T06:57:38.400Z,8.34
2018-01-11T06:58:38.373Z,8.35
2018-01-11T06:59:38.364Z,8.39
2018-01-11T07:00:38.354Z,8.28
2018-01-11T07:01:38.353Z,8.31
2018-01-11T07:02:38.357Z,8.35
2018-01-11T07:03:38.348Z,8.34
2018-01-11T07:04:38.325Z,8.39
2018-01-11T07:05:38.366Z,8.35
2018-01-11T07:06:38.331Z,8.37
2018-01-11T07:07:38.308Z,8.38
2018-01-11T07:08:38.306Z,8.41
2018-01-11T07:09:38.292Z,8.52
2018-01-11T07:10:38.276Z,8.38
2018-01-11T07:11:38.269Z,8.42
2018-01-11T07:12:38.278Z,8.49
2018-01-11T07:13:38.269Z,8.35
2018-01-11T07:14:38.253Z,8.37
2018-01-11T07:15:38.242Z,8.42
2018-01-11T07:16:38.240Z,8.44
2018-01-11T07:17:38.225Z,8.38
2018-01-11T07:18:38.219Z,8.35
2018-01-11T07:19:38.228Z,8.31
2018-01-11T07:20:38.205Z,8.38
2018-01-11T07:21:38.204Z,8.41
2018-01-11T07:22:38.205Z,8.32
2018-01-11T07:23:38.188Z,8.41
2018-01-11T07:24:38.191Z,8.38
2018-01-11T07:25:38.177Z,8.31
2018-01-11T07:26:38.165Z,8.32
2018-01-11T07:27:38.147Z,8.38
2018-01-11T07:28:38.143Z,8.39
2018-01-11T07:29:38.141Z,8.34
2018-01-11T07:30:38.130Z,8.37
2018-01-11T07:31:38.127Z,8.47
2018-01-11T07:32:38.113Z,8.38
2018-01-11T07:33:38.111Z,8.42
2018-01-11T07:34:38.106Z,8.35
2018-01-11T07:35:38.095Z,8.34
2018-01-11T07:36:38.090Z,8.35
2018-01-11T07:37:38.084Z,8.37
2018-01-11T07:38:38.075Z,8.34
2018-01-11T07:39:38.066Z,8.34
2018-01-11T07:40:38.059Z,8.42
2018-01-11T07:41:38.071Z,8.49
2018-01-11T07:42:38.053Z,8.47
2018-01-11T07:43:38.030Z,8.44
2018-01-11T07:44:38.023Z,8.38
2018-01-11T07:45:38.020Z,8.39
2018-01-11T07:46:38.013Z,8.47
2018-01-11T07:47:38.008Z,8.37
2018-01-11T07:48:37.996Z,8.32
2018-01-11T07:49:38.007Z,8.44
2018-01-11T07:50:37.980Z,8.41
2018-01-11T07:51:37.964Z,8.35
2018-01-11T07:52:37.963Z,8.47
2018-01-11T07:53:37.953Z,8.35
2018-01-11T07:54:37.943Z,8.32
2018-01-11T07:55:37.933Z,8.52
2018-01-11T07:56:37.936Z,8.37
2018-01-11T07:57:37.930Z,8.37
2018-01-11T07:58:37.915Z,8.29
2018-01-11T07:59:37.908Z,8.35
2018-01-11T08:00:37.914Z,8.39
2018-01-11T08:01:37.908Z,8.44
2018-01-11T08:02:37.896Z,8.46
2018-01-11T08:03:37.880Z,8.38
2018-01-11T08:04:37.889Z,8.42
2018-01-11T08:05:37.866Z,8.46
2018-01-11T08:06:37.867Z,8.42
2018-01-11T08:07:37.854Z,8.53
2018-01-11T08:08:37.858Z,8.49
2018-01-11T08:09:37.833Z,8.53
2018-01-11T08:10:37.828Z,8.56
2018-01-11T08:11:37.823Z,8.53
2018-01-11T08:12:37.836Z,8.55
2018-01-11T08:13:37.811Z,8.50
2018-01-11T08:14:37.827Z,8.55
2018-01-11T08:15:37.792Z,8.55
2018-01-11T08:16:37.796Z,8.56
2018-01-11T08:17:37.801Z,8.57
2018-01-11T08:18:37.781Z,8.59
2018-01-11T08:19:37.757Z,8.63
2018-01-11T08:20:37.759Z,8.60
2018-01-11T08:21:37.748Z,8.67
2018-01-11T08:22:37.740Z,8.71
2018-01-11T08:23:37.749Z,8.62
2018-01-11T08:24:37.727Z,8.75
2018-01-11T08:25:46.021Z,8.75
2018-01-11T08:28:31.151Z,8.71
2018-01-11T08:29:22.077Z,8.75
2018-01-11T08:32:06.475Z,8.80
2018-01-11T08:33:06.415Z,8.81
2018-01-11T08:35:50.812Z,8.83
2018-01-11T08:36:50.783Z,8.83
2018-01-11T08:39:35.203Z,8.85
2018-01-11T08:40:35.135Z,8.78
2018-01-11T08:43:18.530Z,8.81
2018-01-11T08:44:18.495Z,8.83
2018-01-11T08:47:02.420Z,8.85
2018-01-11T08:48:01.867Z,8.80
2018-01-11T08:50:45.237Z,8.85
2018-01-11T08:51:45.246Z,8.77
2018-01-11T08:54:29.644Z,8.86
2018-01-11T08:55:29.549Z,8.86
2018-01-11T08:58:14.006Z,8.80
2018-01-11T08:59:14.478Z,8.85
2018-01-11T09:01:57.339Z,8.85
2018-01-11T09:02:57.874Z,8.78
2018-01-11T09:05:41.650Z,8.74
2018-01-11T09:06:41.609Z,8.78
2018-01-11T09:07:41.606Z,8.80
2018-01-11T09:08:41.605Z,8.75
2018-01-11T09:09:41.601Z,8.65
2018-01-11T09:10:41.579Z,8.75
2018-01-11T09:11:41.582Z,8.75
2018-01-11T09:12:41.567Z,8.72
2018-01-11T09:13:41.559Z,8.75
2018-01-11T09:14:41.573Z,8.72
2018-01-11T09:15:41.546Z,8.74
2018-01-11T09:16:41.536Z,8.75
2018-01-11T09:17:41.537Z,8.78
2018-01-11T09:18:41.526Z,8.74
2018-01-11T09:19:41.575Z,8.75
2018-01-11T09:20:41.530Z,8.74
2018-01-11T09:21:41.509Z,8.80
2018-01-11T09:22:41.502Z,8.78
2018-01-11T09:23:41.504Z,8.81
2018-01-11T09:24:41.493Z,8.77
2018-01-11T09:25:41.545Z,8.83
2018-01-11T09:26:41.471Z,8.85
2018-01-11T09:27:41.462Z,8.81
2018-01-11T09:28:41.451Z,8.80
2018-01-11T09:29:41.452Z,8.85
2018-01-11T09:30:41.441Z,8.95
2018-01-11T09:31:41.434Z,8.99
2018-01-11T09:32:41.429Z,8.96
2018-01-11T09:33:41.414Z,8.99
2018-01-11T09:34:41.406Z,9.03
2018-01-11T09:35:41.404Z,9.14
2018-01-11T09:36:41.398Z,9.06
2018-01-11T09:37:41.389Z,9.09
2018-01-11T09:38:42.202Z,9.18
2018-01-11T09:39:41.374Z,9.15
2018-01-11T09:40:41.376Z,9.24
2018-01-11T09:41:41.379Z,9.27
2018-01-11T09:42:41.348Z,9.29
2018-01-11T09:43:41.352Z,9.26
2018-01-11T09:44:41.341Z,9.30
2018-01-11T09:45:41.333Z,9.36
2018-01-11T09:46:41.328Z,9.36
2018-01-11T09:47:41.327Z,9.41
2018-01-11T09:48:41.318Z,9.50
2018-01-11T09:49:41.304Z,9.52
2018-01-11T09:50:41.308Z,9.50
2018-01-11T09:51:41.299Z,9.59
2018-01-11T09:52:41.287Z,9.52
2018-01-11T09:53:41.279Z,9.54
2018-01-11T09:54:41.271Z,9.57
2018-01-11T09:55:41.256Z,9.55
2018-01-11T09:56:41.260Z,9.66
2018-01-11T09:57:41.252Z,9.60
2018-01-11T09:58:41.241Z,9.57
2018-01-11T09:59:41.241Z,9.70
2018-01-11T10:00:41.236Z,9.59
2018-01-11T10:01:41.232Z,9.65
2018-01-11T10:02:41.223Z,9.63
2018-01-11T10:03:41.215Z,9.72
2018-01-11T10:04:41.209Z,9.69
2018-01-11T10:05:41.203Z,9.78
2018-01-11T10:06:41.201Z,9.77
2018-01-11T10:07:41.189Z,9.80
2018-01-11T10:08:41.187Z,9.75
2018-01-11T10:09:41.179Z,9.81
2018-01-11T10:10:41.171Z,9.75
2018-01-11T10:11:41.162Z,9.84
2018-01-11T10:12:41.151Z,9.84
2018-01-11T10:13:41.161Z,9.84
2018-01-11T10:14:41.141Z,9.91
2018-01-11T10:15:41.141Z,9.93
2018-01-11T10:16:41.142Z,9.91
2018-01-11T10:17:41.130Z,9.94
2018-01-11T10:18:41.119Z,9.98
2018-01-11T10:19:41.118Z,9.98
2018-01-11T10:20:41.722Z,10.01
2018-01-11T10:21:41.111Z,9.99
2018-01-11T10:22:41.095Z,9.94
2018-01-11T10:23:41.095Z,9.94
2018-01-11T10:24:41.087Z,9.99
2018-01-11T10:25:41.088Z,10.05
2018-01-11T10:26:41.071Z,9.98
2018-01-11T10:27:41.075Z,9.98
2018-01-11T10:28:41.052Z,10.08
2018-01-11T10:29:41.062Z,10.08
2018-01-11T10:30:41.054Z,10.06
2018-01-11T10:31:41.046Z,10.18
2018-01-11T10:32:41.040Z,10.18
2018-01-11T10:33:41.035Z,10.14
2018-01-11T10:34:41.025Z,10.17
2018-01-11T10:35:41.020Z,10.20
2018-01-11T10:36:41.005Z,10.20
2018-01-11T10:37:41.725Z,10.17
2018-01-11T10:38:41.004Z,10.14
2018-01-11T10:39:40.989Z,10.30
2018-01-11T10:40:40.991Z,10.27
2018-01-11T10:41:40.989Z,10.17
2018-01-11T10:42:40.994Z,10.21
2018-01-11T10:43:40.973Z,10.17
2018-01-11T10:44:41.721Z,10.21
2018-01-11T10:45:40.963Z,10.30
2018-01-11T10:46:40.963Z,10.27
2018-01-11T10:47:40.946Z,10.24
2018-01-11T10:48:40.943Z,10.31
2018-01-11T10:49:40.941Z,10.42
2018-01-11T10:50:40.934Z,10.35
2018-01-11T10:51:40.936Z,10.30
2018-01-11T10:52:40.921Z,10.35
2018-01-11T10:53:40.905Z,10.38
2018-01-11T10:54:40.908Z,10.45
2018-01-11T10:55:40.891Z,10.43
2018-01-11T10:56:41.742Z,10.39
2018-01-11T10:57:40.897Z,10.52
2018-01-11T10:58:41.732Z,10.52
2018-01-11T10:59:40.869Z,10.58
2018-01-11T11:00:40.871Z,10.52
2018-01-11T11:01:40.870Z,10.52
2018-01-11T11:02:41.734Z,10.57
2018-01-11T11:03:41.739Z,10.52
2018-01-11T11:04:40.871Z,10.46
2018-01-11T11:05:40.852Z,10.46
2018-01-11T11:06:40.851Z,10.46
2018-01-11T11:07:40.836Z,10.57
2018-01-11T11:07:52.847Z,10.48
2018-01-11T11:09:40.815Z,10.48
2018-01-11T11:10:40.806Z,10.49
2018-01-11T11:11:40.808Z,10.54
2018-01-11T11:12:40.811Z,10.35
2018-01-11T11:13:40.814Z,10.41
2018-01-11T11:14:40.795Z,10.41
2018-01-11T11:15:40.786Z,10.42
2018-01-11T11:16:40.803Z,10.45
2018-01-11T11:17:40.781Z,10.39
2018-01-11T11:18:43.752Z,10.42
2018-01-11T11:19:40.767Z,10.58
2018-01-11T11:20:41.744Z,10.55
2018-01-11T11:21:40.749Z,10.60
2018-01-11T11:22:40.745Z,10.58
2018-01-11T11:23:40.738Z,10.62
2018-01-11T11:24:41.240Z,10.60
2018-01-11T11:25:40.734Z,10.72
2018-01-11T11:26:40.721Z,10.70
2018-01-11T11:27:40.731Z,10.65
2018-01-11T11:28:41.245Z,10.70
2018-01-11T11:29:40.733Z,10.68
2018-01-11T11:30:40.704Z,10.67
2018-01-11T11:31:40.693Z,10.70
2018-01-11T11:32:40.697Z,10.73
2018-01-11T11:33:40.691Z,10.76
2018-01-11T11:34:40.686Z,10.76
2018-01-11T11:35:40.675Z,10.75
2018-01-11T11:36:40.681Z,10.80
2018-01-11T11:37:40.669Z,10.80
2018-01-11T11:38:40.664Z,10.83
2018-01-11T11:39:40.663Z,10.85
2018-01-11T11:40:40.654Z,10.86
2018-01-11T11:41:40.645Z,10.94
2018-01-11T11:42:40.642Z,10.94
2018-01-11T11:43:40.633Z,10.86
2018-01-11T11:44:40.640Z,10.93
2018-01-11T11:45:40.622Z,10.91
2018-01-11T11:46:40.620Z,10.90
2018-01-11T11:47:40.612Z,10.95
2018-01-11T11:48:40.611Z,10.98
2018-01-11T11:49:40.604Z,10.94
2018-01-11T11:50:40.602Z,10.94
2018-01-11T11:51:40.599Z,10.91
2018-01-11T11:52:40.582Z,10.91
2018-01-11T11:53:40.590Z,10.87
2018-01-11T11:54:40.597Z,10.94
2018-01-11T11:55:40.585Z,10.94
2018-01-11T11:56:40.567Z,10.85
2018-01-11T11:57:40.559Z,10.86
2018-01-11T11:58:40.561Z,10.86
2018-01-11T11:59:40.558Z,10.80
2018-01-11T12:00:40.546Z,10.76
2018-01-11T12:01:40.541Z,10.68
2018-01-11T12:02:40.531Z,10.67
2018-01-11T12:03:40.530Z,10.73
2018-01-11T12:04:40.535Z,10.68
2018-01-11T12:05:40.509Z,10.62
2018-01-11T12:06:40.523Z,10.68
2018-01-11T12:07:40.517Z,10.60
2018-01-11T12:08:40.501Z,10.61
2018-01-11T12:09:40.495Z,10.55
2018-01-11T12:10:40.483Z,10.57
2018-01-11T12:11:40.488Z,10.57
2018-01-11T12:12:40.480Z,10.57
2018-01-11T12:13:40.469Z,10.48
2018-01-11T12:14:40.464Z,10.48
2018-01-11T12:15:40.467Z,10.39
2018-01-11T12:16:40.474Z,10.38
2018-01-11T12:17:41.271Z,10.38
2018-01-11T12:18:40.445Z,10.38
2018-01-11T12:19:40.443Z,10.43
2018-01-11T12:20:40.431Z,10.54
2018-01-11T12:21:40.421Z,10.49
2018-01-11T12:22:40.416Z,10.58
2018-01-11T12:23:40.416Z,10.54
2018-01-11T12:24:40.403Z,10.62
2018-01-11T12:25:40.413Z,10.65
2018-01-11T12:26:40.429Z,10.68
2018-01-11T12:27:40.395Z,10.67
2018-01-11T12:28:40.386Z,10.68
2018-01-11T12:29:40.406Z,10.61
2018-01-11T12:30:40.392Z,10.79
2018-01-11T12:31:40.374Z,10.70
2018-01-11T12:32:41.279Z,10.68
2018-01-11T12:33:40.367Z,10.68
2018-01-11T12:34:43.272Z,10.65
2018-01-11T12:35:40.358Z,10.72
2018-01-11T12:36:40.360Z,10.58
2018-01-11T12:37:40.334Z,10.57
2018-01-11T12:38:41.273Z,10.62
2018-01-11T12:39:40.325Z,10.46
2018-01-11T12:40:40.319Z,10.57
2018-01-11T12:41:40.313Z,10.46
2018-01-11T12:42:40.302Z,10.39
2018-01-11T12:43:40.315Z,10.38
2018-01-11T12:44:40.304Z,10.41
2018-01-11T12:45:40.300Z,10.39
2018-01-11T12:46:40.301Z,10.45
2018-01-11T12:47:40.313Z,10.39
2018-01-11T12:48:40.284Z,10.43
2018-01-11T12:49:40.273Z,10.54
2018-01-11T12:49:52.276Z,10.52
2018-01-11T12:51:40.772Z,10.38
2018-01-11T12:52:40.257Z,10.45
2018-01-11T12:53:40.253Z,10.46
2018-01-11T12:54:40.245Z,10.52
2018-01-11T12:55:40.243Z,10.46
2018-01-11T12:56:40.236Z,10.52
2018-01-11T12:57:40.230Z,10.52
2018-01-11T12:58:40.223Z,10.48
2018-01-11T12:59:40.228Z,10.48
2018-01-11T13:00:40.784Z,10.52
2018-01-11T13:01:40.202Z,10.52
2018-01-11T13:02:40.193Z,10.58
2018-01-11T13:03:40.188Z,10.58
2018-01-11T13:04:40.184Z,10.61
2018-01-11T13:05:40.171Z,10.64
2018-01-11T13:06:40.782Z,10.67
2018-01-11T13:07:40.787Z,10.73
2018-01-11T13:08:40.169Z,10.79
2018-01-11T13:09:40.184Z,10.67
2018-01-11T13:10:40.153Z,10.82
2018-01-11T13:11:40.150Z,10.78
2018-01-11T13:12:40.161Z,10.86
2018-01-11T13:13:40.148Z,10.93
2018-01-11T13:14:40.127Z,10.94
2018-01-11T13:15:40.115Z,11.04
2018-01-11T13:16:40.114Z,11.04
2018-01-11T13:17:40.110Z,11.05
2018-01-11T13:18:40.098Z,10.95
2018-01-11T13:19:40.099Z,11.08
2018-01-11T13:20:40.088Z,11.13
2018-01-11T13:21:40.088Z,11.19
2018-01-11T13:22:40.095Z,11.05
2018-01-11T13:23:40.080Z,11.12
2018-01-11T13:24:40.070Z,11.15
2018-01-11T13:25:40.080Z,11.15
2018-01-11T13:26:40.070Z,11.25
2018-01-11T13:27:40.057Z,11.16
2018-01-11T13:28:40.058Z,11.16
2018-01-11T13:29:40.065Z,11.23
2018-01-11T13:30:40.050Z,11.15
2018-01-11T13:31:40.033Z,11.12